Time;durP1;ratioP1;P1;durP2;ratioP2;P2;SDS_P1;SDS_P2;PMS_P1;PMS_P2;Temp;Humidity;BMP_temperature;BMP_pressure;BME280_temperature;BME280_humidity;BME280_pressure;Samples;Min_cycle;Max_cycle;Signal;HPM_P1;HPM_P2
2022/11/01 00:01:12;;;;;;;23.40;11.52;;;;;;;9.93;100.00;98783.66;5048146;28;20471;-64
2022/11/01 00:03:37;;;;;;;20.15;11.77;;;;;;;10.04;100.00;98782.25;5050347;28;20067;-64
2022/11/01 00:06:03;;;;;;;19.98;11.80;;;;;;;10.07;100.00;98785.38;5061770;28;20032;-64
2022/11/01 00:08:28;;;;;;;32.38;13.57;;;;;;;10.23;100.00;98778.81;5059056;28;20051;-64
2022/11/01 00:11:09;;;;;;;23.13;12.10;;;;;;;10.36;100.00;98769.94;5054321;28;20025;-64
2022/11/01 00:13:34;;;;;;;21.75;11.90;;;;;;;10.37;100.00;98782.41;5054197;28;20035;-64
2022/11/01 00:16:00;;;;;;;22.85;12.13;;;;;;;10.51;100.00;98750.84;5051879;28;20055;-64
2022/11/01 00:18:25;;;;;;;24.05;12.88;;;;;;;10.51;100.00;98773.31;5054361;28;20086;-66
2022/11/01 00:20:51;;;;;;;24.00;12.73;;;;;;;10.57;100.00;98747.31;5074835;22;20043;-70
2022/11/01 00:23:16;;;;;;;24.00;12.27;;;;;;;10.55;100.00;98764.78;5069484;28;20032;-72
2022/11/01 00:25:41;;;;;;;24.02;11.73;;;;;;;10.43;100.00;98759.16;5073142;28;20016;-71
2022/11/01 00:28:07;;;;;;;25.05;12.05;;;;;;;10.27;100.00;98761.19;5072912;28;20024;-71
2022/11/01 00:30:36;;;;;;;17.98;10.98;;;;;;;10.21;100.00;98758.41;5069007;28;20028;-71
2022/11/01 00:33:01;;;;;;;20.15;10.38;;;;;;;10.18;100.00;98745.28;5047699;28;20063;-71
2022/11/01 00:35:27;;;;;;;24.00;11.60;;;;;;;10.12;100.00;98738.84;5071382;28;20056;-71
2022/11/01 00:37:52;;;;;;;23.98;12.65;;;;;;;10.09;100.00;98750.88;5068116;28;20032;-71
2022/11/01 00:40:17;;;;;;;23.10;13.40;;;;;;;10.22;100.00;98744.69;5070220;28;20044;-71
2022/11/01 00:42:43;;;;;;;28.42;14.25;;;;;;;10.22;100.00;98739.28;5051177;28;20078;-71
2022/11/01 00:45:08;;;;;;;20.95;13.63;;;;;;;10.23;100.00;98749.06;5080701;28;20040;-71
2022/11/01 00:47:33;;;;;;;24.90;13.77;;;;;;;10.18;100.00;98746.13;5076952;28;20032;-71
2022/11/01 00:49:59;;;;;;;29.50;15.25;;;;;;;10.15;100.00;98748.41;5070140;28;20107;-71
2022/11/01 00:52:24;;;;;;;27.25;13.63;;;;;;;9.98;100.00;98745.19;5064073;28;20039;-72
2022/11/01 00:54:49;;;;;;;31.40;14.65;;;;;;;10.00;100.00;98741.25;5060189;28;20020;-71
2022/11/01 00:57:15;;;;;;;28.60;14.85;;;;;;;9.99;100.00;98747.72;5072130;28;20150;-71
2022/11/01 00:59:40;;;;;;;28.60;14.45;;;;;;;9.92;100.00;98743.31;5055600;28;20501;-71
2022/11/01 01:02:05;;;;;;;22.90;13.73;;;;;;;9.95;100.00;98743.72;5069967;28;20351;-71
2022/11/01 01:04:30;;;;;;;23.80;12.73;;;;;;;9.98;100.00;98751.47;5072850;28;20474;-71
2022/11/01 01:06:56;;;;;;;25.85;13.77;;;;;;;9.96;100.00;98744.59;5054995;28;20024;-71
2022/11/01 01:09:21;;;;;;;21.42;12.63;;;;;;;9.95;100.00;98753.72;5060635;28;20043;-71
2022/11/01 01:11:46;;;;;;;23.30;11.98;;;;;;;10.01;100.00;98764.56;5049534;28;20062;-71
2022/11/01 01:14:12;;;;;;;26.30;12.13;;;;;;;9.91;100.00;98753.28;5054971;28;20025;-71
2022/11/01 01:16:37;;;;;;;24.10;11.75;;;;;;;9.90;100.00;98756.19;5058376;28;20873;-71
2022/11/01 01:19:02;;;;;;;29.75;12.70;;;;;;;9.75;100.00;98743.66;5070966;28;20021;-71
2022/11/01 01:21:27;;;;;;;20.45;11.85;;;;;;;9.69;100.00;98754.41;5065587;28;20036;-71
2022/11/01 01:23:53;;;;;;;23.73;12.50;;;;;;;9.73;100.00;98759.22;5060729;28;20020;-71
2022/11/01 01:26:20;;;;;;;21.15;12.88;;;;;;;9.70;100.00;98753.41;5075995;28;20032;-72
2022/11/01 01:28:45;;;;;;;25.67;11.70;;;;;;;9.73;100.00;98755.69;5058686;28;20110;-72
2022/11/01 01:31:12;;;;;;;25.02;12.93;;;;;;;9.60;100.00;98742.94;5070690;28;20490;-72
2022/11/01 01:33:37;;;;;;;21.85;12.35;;;;;;;9.74;100.00;98750.06;5052394;28;20025;-71
2022/11/01 01:36:04;;;;;;;23.52;11.85;;;;;;;9.71;100.00;98746.94;5062368;28;20470;-72
2022/11/01 01:38:29;;;;;;;21.30;11.95;;;;;;;9.68;100.00;98737.38;5048836;28;20033;-72
2022/11/01 01:41:54;;;;;;;22.98;12.60;;;;;;;9.72;100.00;98744.06;5074037;28;20031;-72
2022/11/01 01:43:42;;;;;;;22.50;12.05;;;;;;;9.82;100.00;98754.47;5072165;28;20036;-72
2022/11/01 01:46:09;;;;;;;29.10;13.40;;;;;;;9.85;100.00;98727.06;5069710;28;20554;-72
2022/11/01 01:48:35;;;;;;;28.40;13.23;;;;;;;9.93;100.00;98744.97;5074478;28;20126;-72
2022/11/01 01:51:05;;;;;;;22.70;12.15;;;;;;;9.92;100.00;98716.28;5073619;28;20033;-72
2022/11/01 01:53:33;;;;;;;;;;;;;;;9.96;100.00;98744.59;5051383;28;20413;-72
2022/11/01 01:56:02;;;;;;;27.52;12.13;;;;;;;9.77;100.00;98729.94;5080171;28;19969;-72
2022/11/01 01:58:31;;;;;;;28.85;13.98;;;;;;;9.67;100.00;98724.91;5077733;28;20035;-72
2022/11/01 02:00:57;;;;;;;23.58;13.15;;;;;;;9.78;100.00;98740.53;5075758;28;20091;-72
2022/11/01 02:03:30;;;;;;;24.30;12.85;;;;;;;9.76;100.00;98739.06;5068441;28;20033;-72
2022/11/01 02:06:09;;;;;;;26.98;13.75;;;;;;;9.87;100.00;98747.44;5051462;28;20039;-72
2022/11/01 02:08:38;;;;;;;27.98;13.10;;;;;;;9.76;100.00;98729.09;5053196;28;20024;-72
2022/11/01 02:11:05;;;;;;;21.05;11.63;;;;;;;9.87;100.00;98752.84;5074395;28;20064;-72
2022/11/01 02:13:31;;;;;;;27.98;12.55;;;;;;;9.94;100.00;98754.75;5071643;28;20024;-72
2022/11/01 02:16:15;;;;;;;21.23;12.88;;;;;;;9.95;100.00;98749.13;5056413;28;20108;-71
2022/11/01 02:18:47;;;;;;;22.92;12.77;;;;;;;9.92;100.00;98736.03;5071862;28;20029;-72
2022/11/01 02:21:21;;;;;;;18.23;10.85;;;;;;;9.99;100.00;98745.00;5051960;28;20401;-72
2022/11/01 02:24:13;;;;;;;19.08;11.48;;;;;;;10.04;100.00;98747.13;5070046;28;20500;-71
2022/11/01 02:27:07;;;;;;;24.55;12.00;;;;;;;10.16;100.00;98752.78;5053496;28;20469;-72
2022/11/01 02:29:58;;;;;;;23.05;11.48;;;;;;;10.14;100.00;98736.78;5071855;28;20036;-72
2022/11/01 02:32:49;;;;;;;23.13;12.60;;;;;;;10.26;100.00;98759.47;5051989;28;20459;-72
2022/11/01 02:35:52;;;;;;;22.70;11.63;;;;;;;10.27;100.00;98769.28;5070696;28;20024;-71
2022/11/01 02:38:25;;;;;;;27.25;12.70;;;;;;;10.31;100.00;98773.25;5071253;28;20079;-71
2022/11/01 02:41:11;;;;;;;22.27;11.68;;;;;;;10.49;100.00;98767.28;5050224;28;20039;-71
2022/11/01 02:43:53;;;;;;;23.80;11.15;;;;;;;10.53;100.00;98767.69;5069992;28;20020;-71
2022/11/01 02:49:06;;;;;;;17.55;9.90;;;;;;;10.44;100.00;98744.59;5072819;28;20063;-71
2022/11/01 02:51:33;;;;;;;22.02;10.32;;;;;;;10.55;100.00;98738.56;5068163;28;20020;-71
2022/11/01 02:54:35;;;;;;;18.63;9.15;;;;;;;10.41;100.00;98731.47;5066982;28;20089;-71
2022/11/01 02:57:36;;;;;;;20.67;9.52;;;;;;;10.60;100.00;98730.66;5045559;28;20041;-71
2022/11/01 03:00:19;;;;;;;17.10;8.23;;;;;;;10.67;100.00;98734.22;5070432;28;20397;-71
2022/11/01 03:02:44;;;;;;;16.20;8.80;;;;;;;10.69;100.00;98718.63;5061827;28;20031;-71
2022/11/01 03:05:25;;;;;;;16.95;8.65;;;;;;;10.67;100.00;98734.22;5054425;28;20056;-71
2022/11/01 03:07:56;;;;;;;15.32;8.52;;;;;;;10.72;100.00;98723.63;5074143;28;20040;-71
2022/11/01 03:10:32;;;;;;;21.10;9.70;;;;;;;10.63;100.00;98727.56;5067461;28;20033;-71
2022/11/01 03:13:27;;;;;;;16.38;9.00;;;;;;;10.68;100.00;98754.81;5053660;28;20027;-71
2022/11/01 03:16:03;;;;;;;19.25;9.63;;;;;;;10.59;100.00;98772.31;5054240;28;20024;-71
2022/11/01 03:18:33;;;;;;;16.52;10.32;;;;;;;10.63;100.00;98743.78;5069354;28;20020;-71
2022/11/01 03:21:14;;;;;;;16.20;9.52;;;;;;;10.57;100.00;98739.19;5049653;28;20090;-72
2022/11/01 03:23:47;;;;;;;18.38;9.90;;;;;;;10.42;100.00;98738.53;5075638;28;20028;-72
2022/11/01 03:26:19;;;;;;;18.10;10.65;;;;;;;10.50;100.00;98750.00;5049894;28;20070;-71
2022/11/01 03:28:52;;;;;;;24.88;10.07;;;;;;;10.60;100.00;98748.78;5054983;28;20032;-71
2022/11/01 03:31:26;;;;;;;22.50;9.65;;;;;;;10.51;100.00;98748.16;5073498;28;20664;-72
2022/11/01 03:33:56;;;;;;;22.00;9.85;;;;;;;10.58;100.00;98770.63;5068476;28;20032;-71
2022/11/01 03:36:25;;;;;;;20.17;9.15;;;;;;;10.50;100.00;98751.88;5068150;28;20028;-72
2022/11/01 03:38:53;;;;;;;;;;;;;;;10.59;100.00;98756.06;5075211;28;20021;-72
2022/11/01 03:41:22;;;;;;;21.33;9.10;;;;;;;10.48;100.00;98760.22;5067222;28;19913;-71
2022/11/01 03:43:47;;;;;;;16.55;9.25;;;;;;;10.80;100.00;98763.19;5072714;28;20028;-71
2022/11/01 03:46:14;;;;;;;16.05;8.40;;;;;;;10.83;100.00;98756.53;5068260;28;20025;-71
2022/11/01 03:48:40;;;;;;;16.65;9.13;;;;;;;10.84;100.00;98750.91;5070541;28;20074;-72
2022/11/01 03:51:06;;;;;;;14.75;8.68;;;;;;;10.84;100.00;98760.88;5068359;28;20111;-71
2022/11/01 03:53:31;;;;;;;17.42;8.68;;;;;;;10.86;100.00;98770.47;5058445;28;20028;-72
2022/11/01 03:55:56;;;;;;;21.45;8.80;;;;;;;10.68;100.00;98768.34;5068942;28;20024;-71
2022/11/01 03:58:22;;;;;;;19.83;9.25;;;;;;;10.83;100.00;98794.41;5042784;28;20036;-71
2022/11/01 04:00:49;;;;;;;15.90;8.63;;;;;;;10.87;100.00;98801.06;5055486;28;20017;-72
2022/11/01 04:03:15;;;;;;;18.08;8.85;;;;;;;10.83;100.00;98806.06;5069635;28;20055;-72
2022/11/01 04:05:41;;;;;;;17.05;7.80;;;;;;;10.70;100.00;98806.88;5056020;28;20477;-72
2022/11/01 04:08:08;;;;;;;17.67;8.43;;;;;;;10.57;100.00;98804.13;5072691;28;20063;-72
2022/11/01 04:20:31;;;;;;;14.98;8.30;;;;;;;10.55;100.00;98808.91;5064581;28;20153;-72
2022/11/01 04:22:08;;;;;;;15.82;8.55;;;;;;;10.62;100.00;98815.19;5068542;28;20507;-72
2022/11/01 04:24:34;;;;;;;16.73;8.20;;;;;;;10.75;100.00;98814.38;5073625;28;20336;-72
2022/11/01 04:26:59;;;;;;;19.92;9.38;;;;;;;10.83;100.00;98829.59;5071545;28;20063;-72
2022/11/01 04:29:24;;;;;;;15.10;7.25;;;;;;;10.94;100.00;98796.50;5071923;28;20123;-71
2022/11/01 04:31:50;;;;;;;13.27;8.23;;;;;;;11.18;100.00;98804.03;5068850;28;20168;-71
2022/11/01 04:34:40;;;;;;;22.13;8.05;;;;;;;11.18;100.00;98787.78;5047361;28;20029;-72
2022/11/01 04:37:00;;;;;;;12.65;7.72;;;;;;;11.23;100.00;98786.34;5073588;28;20036;-72
2022/11/01 04:39:26;;;;;;;15.02;8.73;;;;;;;11.13;100.00;98793.00;5057506;28;20016;-72
2022/11/01 04:41:51;;;;;;;18.77;9.15;;;;;;;10.90;100.00;98804.22;5054013;28;20077;-71
2022/11/01 04:44:16;;;;;;;16.00;8.35;;;;;;;10.94;100.00;98826.28;5052133;28;20439;-72
2022/11/01 04:46:41;;;;;;;15.43;8.05;;;;;;;10.91;100.00;98807.75;5071942;28;20027;-72
2022/11/01 04:49:07;;;;;;;14.88;8.50;;;;;;;11.02;100.00;98822.56;5057692;28;20036;-72
2022/11/01 04:51:32;;;;;;;12.52;7.95;;;;;;;10.90;100.00;98808.81;5059411;28;20035;-72
2022/11/01 04:53:57;;;;;;;15.98;10.20;;;;;;;10.96;100.00;98833.16;5070276;28;20595;-71
2022/11/01 04:56:23;;;;;;;19.80;8.52;;;;;;;11.04;100.00;98850.28;5049722;28;20166;-72
2022/11/01 04:58:48;;;;;;;17.58;9.07;;;;;;;10.94;100.00;98859.59;5068786;28;20020;-72
2022/11/01 05:01:13;;;;;;;16.70;8.30;;;;;;;10.84;100.00;98867.28;5070316;28;20036;-72
2022/11/01 05:03:39;;;;;;;19.85;8.48;;;;;;;10.80;100.00;98878.72;5072550;28;20370;-72
2022/11/01 05:06:04;;;;;;;19.23;8.50;;;;;;;10.79;100.00;98860.81;5069069;28;20031;-72
2022/11/01 05:08:29;;;;;;;17.20;8.45;;;;;;;11.00;100.00;98882.31;5052407;28;20048;-72
2022/11/01 05:10:56;;;;;;;11.00;7.65;;;;;;;11.25;100.00;98879.88;5069832;28;20401;-72
2022/11/01 05:13:22;;;;;;;13.07;7.00;;;;;;;11.34;100.00;98884.06;5071421;28;20044;-72
2022/11/01 05:15:47;;;;;;;19.33;8.40;;;;;;;11.46;100.00;98875.31;5079508;28;20048;-72
2022/11/01 05:18:12;;;;;;;15.25;7.57;;;;;;;11.49;100.00;98870.31;5095259;28;20037;-72
2022/11/01 05:20:38;;;;;;;16.60;7.80;;;;;;;11.52;100.00;98867.19;5095506;28;20025;-72
2022/11/01 05:23:04;;;;;;;13.80;7.88;;;;;;;11.48;100.00;98863.25;5096904;28;20025;-72
2022/11/01 05:25:30;;;;;;;15.02;7.38;;;;;;;11.58;100.00;98889.91;5074991;28;20059;-72
2022/11/01 05:28:06;;;;;;;11.73;6.95;;;;;;;11.59;100.00;98869.91;5076699;28;20024;-72
2022/11/01 05:30:32;;;;;;;14.20;6.38;;;;;;;11.66;100.00;98875.31;5078097;28;20063;-72
2022/11/01 05:32:58;;;;;;;17.17;6.97;;;;;;;11.87;100.00;98899.56;5079048;28;20036;-72
2022/11/01 05:35:24;;;;;;;11.57;6.63;;;;;;;11.77;100.00;98880.97;5083353;28;20028;-73
2022/11/01 05:37:50;;;;;;;15.40;6.15;;;;;;;11.80;100.00;98872.41;5075041;28;20027;-72
2022/11/01 05:40:16;;;;;;;15.82;6.70;;;;;;;12.00;100.00;98904.13;5079702;28;20028;-72
2022/11/01 05:42:41;;;;;;;12.95;6.25;;;;;;;12.03;100.00;98899.09;5089829;28;20027;-72
2022/11/01 05:45:08;;;;;;;17.80;6.70;;;;;;;11.92;100.00;98879.91;5092975;28;20050;-72
2022/11/01 05:47:34;;;;;;;13.90;6.22;;;;;;;11.93;100.00;98887.84;5073783;28;20051;-72
2022/11/01 05:49:59;;;;;;;13.63;6.88;;;;;;;11.77;100.00;98886.38;5072415;28;20025;-72
2022/11/01 05:52:24;;;;;;;12.93;5.95;;;;;;;11.89;100.00;98891.19;5083428;28;20024;-72
2022/11/01 05:54:50;;;;;;;13.98;6.15;;;;;;;11.77;100.00;98847.59;5094473;28;20036;-72
2022/11/01 05:57:15;;;;;;;14.18;6.43;;;;;;;11.74;100.00;98837.19;5090640;28;20036;-71
2022/11/01 05:59:40;;;;;;;17.90;6.40;;;;;;;11.82;100.00;98837.78;5092855;28;20024;-72
2022/11/01 06:02:06;;;;;;;11.50;6.20;;;;;;;11.87;100.00;98863.44;5075198;28;20052;-74
2022/11/01 06:04:31;;;;;;;20.98;8.00;;;;;;;11.78;100.00;98851.97;5086084;28;20401;-71
2022/11/01 06:06:56;;;;;;;14.55;6.60;;;;;;;11.86;100.00;98862.63;5058453;28;20059;-72
2022/11/01 06:09:22;;;;;;;11.98;7.25;;;;;;;11.67;100.00;98872.41;5075371;28;20067;-72
2022/11/01 06:11:47;;;;;;;13.18;6.90;;;;;;;11.66;100.00;98915.97;5074782;28;20051;-76
2022/11/01 06:14:12;;;;;;;12.30;6.68;;;;;;;11.49;100.00;98896.56;5069615;28;20032;-74
2022/11/01 06:16:38;;;;;;;15.00;7.45;;;;;;;11.54;100.00;98927.44;5075712;28;20083;-76
2022/11/01 06:19:03;;;;;;;13.90;6.97;;;;;;;11.55;100.00;98933.66;5053447;28;20032;-77
2022/11/01 06:21:28;;;;;;;11.77;7.03;;;;;;;11.51;100.00;98900.75;5088519;22;20049;-74
2022/11/01 06:23:54;;;;;;;16.65;7.80;;;;;;;11.54;100.00;98918.47;5041635;28;20174;-73
2022/11/01 06:26:19;;;;;;;16.60;6.97;;;;;;;11.59;100.00;98941.19;5039876;28;20016;-74
2022/11/01 06:28:45;;;;;;;17.77;6.95;;;;;;;11.54;100.00;98938.25;5046304;28;20024;-74
2022/11/01 06:31:12;;;;;;;14.85;6.65;;;;;;;11.76;100.00;98938.06;5038120;28;20030;-75
2022/11/01 06:33:38;;;;;;;13.02;6.78;;;;;;;11.67;100.00;98909.53;5030927;28;20029;-75
2022/11/01 06:36:04;;;;;;;13.18;6.03;;;;;;;11.74;100.00;98913.06;5009305;28;20036;-74
2022/11/01 06:38:29;;;;;;;23.85;7.18;;;;;;;11.84;100.00;98944.16;5030667;28;20053;-73
2022/11/01 06:40:54;;;;;;;18.10;6.90;;;;;;;11.98;100.00;98936.88;5027861;28;20419;-73
2022/11/01 06:43:20;;;;;;;18.85;7.78;;;;;;;11.97;100.00;98951.47;5006424;28;20036;-74
2022/11/01 06:45:45;;;;;;;10.27;6.75;;;;;;;11.77;100.00;98926.22;5028392;28;20467;-74
2022/11/01 06:48:11;;;;;;;9.10;6.20;;;;;;;11.66;100.00;98903.28;5008834;28;20052;-74
2022/11/01 06:50:36;;;;;;;12.65;6.97;;;;;;;11.63;100.00;98907.22;5032924;28;20075;-74
2022/11/01 06:53:01;;;;;;;17.75;6.85;;;;;;;11.61;100.00;98906.59;5013012;28;20057;-78
2022/11/01 06:55:28;;;;;;;12.43;6.70;;;;;;;11.97;100.00;98964.19;5031070;28;20108;-73
2022/11/01 06:57:58;;;;;;;8.77;6.15;;;;;;;12.01;100.00;98968.16;5026886;28;20170;-73
2022/11/01 07:00:25;;;;;;;17.20;5.68;;;;;;;12.12;100.00;98958.56;5014219;28;20035;-73
2022/11/01 07:03:03;;;;;;;11.20;5.57;;;;;;;12.25;100.00;98959.38;5029504;28;20017;-73
2022/11/01 07:05:30;;;;;;;13.63;6.45;;;;;;;12.35;100.00;98936.41;5010075;28;20140;-72
2022/11/01 07:07:56;;;;;;;14.13;6.55;;;;;;;12.68;100.00;98949.88;5025439;28;20030;-72
2022/11/01 07:10:21;;;;;;;16.58;6.00;;;;;;;12.66;100.00;98939.25;5007145;28;20024;-73
2022/11/01 07:12:47;;;;;;;13.82;6.95;;;;;;;12.71;100.00;98963.06;5024416;28;20060;-72
2022/11/01 07:15:12;;;;;;;20.77;9.18;;;;;;;12.55;100.00;98972.50;5023670;28;21954;-73
2022/11/01 07:17:38;;;;;;;16.08;9.00;;;;;;;12.62;100.00;98984.16;5020986;28;20079;-74
2022/11/01 07:20:03;;;;;;;18.15;9.40;;;;;;;12.27;100.00;98970.03;5013714;28;20055;-73
2022/11/01 07:22:29;;;;;;;17.58;7.95;;;;;;;12.27;100.00;98999.88;5027145;28;20026;-74
2022/11/01 07:24:54;;;;;;;14.07;7.95;;;;;;;12.25;100.00;99001.94;5010612;28;20018;-74
2022/11/01 07:27:20;;;;;;;13.15;6.70;;;;;;;12.21;100.00;98987.16;5025707;28;20030;-74
2022/11/01 07:29:45;;;;;;;16.95;6.20;;;;;;;12.40;100.00;98994.44;5020966;28;21687;-75
2022/11/01 07:32:10;;;;;;;13.15;5.85;;;;;;;12.55;100.00;98972.50;5006274;28;20056;-74
2022/11/01 07:34:35;;;;;;;12.90;6.30;;;;;;;12.67;100.00;98967.22;5030841;28;20108;-74
2022/11/01 07:37:01;;;;;;;15.35;5.38;;;;;;;12.90;100.00;98970.28;5027036;28;20104;-74
2022/11/01 07:39:26;;;;;;;8.10;3.60;;;;;;;13.29;100.00;98998.38;5025778;28;20053;-75
2022/11/01 07:41:53;;;;;;;6.18;3.30;;;;;;;13.43;100.00;98944.78;5010554;28;20045;-74
2022/11/01 07:44:18;;;;;;;5.57;3.65;;;;;;;13.86;100.00;98974.00;5005153;28;20398;-74
2022/11/01 07:46:44;;;;;;;9.45;4.05;;;;;;;13.85;100.00;98977.75;5020391;28;20108;-75
2022/11/01 07:49:09;;;;;;;12.30;5.25;;;;;;;13.94;100.00;98978.34;5008057;28;20025;-72
2022/11/01 07:51:34;;;;;;;12.70;5.15;;;;;;;13.77;100.00;98962.53;5025524;28;20064;-73
2022/11/01 07:54:00;;;;;;;11.00;4.32;;;;;;;13.97;100.00;98977.91;5005015;28;20025;-76
2022/11/01 07:56:25;;;;;;;5.43;2.92;;;;;;;14.15;100.00;98971.69;5006833;28;20471;-76
2022/11/01 07:58:51;;;;;;;5.35;2.50;;;;;;;14.42;100.00;98978.53;5027376;28;20034;-76
2022/11/01 08:01:16;;;;;;;6.30;2.30;;;;;;;14.58;100.00;98971.72;5009697;28;20049;-76
2022/11/01 08:03:41;;;;;;;6.97;2.65;;;;;;;14.81;100.00;98992.03;5018687;28;20022;-76
2022/11/01 08:06:07;;;;;;;9.18;2.75;;;;;;;14.90;100.00;98974.28;5021745;28;20156;-76
2022/11/01 08:08:32;;;;;;;5.78;2.70;;;;;;;15.10;100.00;98980.34;5031221;28;20033;-76
2022/11/01 08:11:00;;;;;;;4.57;2.50;;;;;;;15.31;100.00;98987.22;5007071;28;20109;-76
2022/11/01 08:13:25;;;;;;;8.32;2.83;;;;;;;15.51;100.00;98984.22;5026448;28;20029;-73
2022/11/01 08:15:52;;;;;;;7.38;2.78;;;;;;;15.61;100.00;98975.47;5023800;28;20429;-69
2022/11/01 08:18:21;;;;;;;4.60;2.10;;;;;;;15.95;100.00;98987.56;5026711;28;20034;-71
2022/11/01 08:20:46;;;;;;;3.70;2.08;;;;;;;16.03;100.00;98982.84;5027959;28;20030;-71
2022/11/01 08:23:12;;;;;;;7.40;2.42;;;;;;;16.25;100.00;98983.16;5019122;28;20376;-72
2022/11/01 08:25:38;;;;;;;4.78;3.00;;;;;;;16.28;100.00;98988.97;5024720;28;20029;-74
2022/11/01 08:28:06;;;;;;;6.80;3.20;;;;;;;16.16;100.00;98988.09;5008236;28;20029;-73
2022/11/01 08:30:32;;;;;;;6.70;2.97;;;;;;;16.36;100.00;99002.25;5025648;28;20096;-74
2022/11/01 08:33:02;;;;;;;5.32;2.97;;;;;;;16.58;100.00;99021.66;5026659;28;20123;-74
2022/11/01 08:35:28;;;;;;;6.07;2.42;;;;;;;16.53;100.00;99009.75;5005632;28;20030;-73
2022/11/01 08:37:54;;;;;;;5.13;2.67;;;;;;;16.62;100.00;99022.00;5021647;28;20044;-73
2022/11/01 08:40:20;;;;;;;3.22;1.60;;;;;;;16.95;100.00;99015.09;5006803;28;20622;-72
2022/11/01 08:42:46;;;;;;;2.95;1.77;;;;;;;16.95;100.00;99001.44;5023043;28;20021;-72
2022/11/01 08:45:11;;;;;;;2.22;1.42;;;;;;;17.42;100.00;99015.84;5027751;28;20402;-73
2022/11/01 08:47:40;;;;;;;3.13;1.60;;;;;;;17.28;100.00;99001.59;5012067;28;20029;-72
2022/11/01 08:50:07;;;;;;;4.57;1.27;;;;;;;17.20;100.00;98992.94;5039038;28;20022;-72
2022/11/01 08:52:33;;;;;;;1.83;1.60;;;;;;;17.31;100.00;99009.31;5010472;28;20033;-72
2022/11/01 08:54:58;;;;;;;2.50;1.08;;;;;;;17.56;100.00;98997.25;5020309;28;20544;-72
2022/11/01 08:57:23;;;;;;;2.50;1.17;;;;;;;17.56;100.00;99013.66;5025875;28;20036;-73
2022/11/01 08:59:49;;;;;;;5.20;1.58;;;;;;;17.00;100.00;99010.59;5029732;28;20056;-67
2022/11/01 09:02:14;;;;;;;9.13;1.75;;;;;;;16.93;100.00;99031.75;5031540;28;20035;-67
2022/11/01 09:04:39;;;;;;;4.13;1.52;;;;;;;16.74;100.00;99031.03;5022345;28;20108;-68
2022/11/01 09:07:04;;;;;;;3.35;1.80;;;;;;;16.46;100.00;99014.50;5018624;28;20058;-67
2022/11/01 09:09:30;;;;;;;6.28;1.77;;;;;;;16.47;100.00;99025.19;5022642;28;20116;-66
2022/11/01 09:11:55;;;;;;;2.55;1.40;;;;;;;16.27;100.00;99021.94;5023222;28;20080;-68
2022/11/01 09:14:23;;;;;;;2.60;1.60;;;;;;;16.39;100.00;99047.38;5012776;28;20607;-68
2022/11/01 09:16:49;;;;;;;3.95;1.73;;;;;;;16.33;100.00;99048.31;5027381;28;20452;-67
2022/11/01 09:19:15;;;;;;;4.03;1.60;;;;;;;16.19;100.00;99047.69;5020701;28;20033;-67
2022/11/01 09:21:42;;;;;;;2.15;1.40;;;;;;;16.21;100.00;99045.56;5017031;28;20041;-67
2022/11/01 09:24:10;;;;;;;2.75;1.30;;;;;;;16.09;100.00;99052.91;5028508;28;20037;-67
2022/11/01 09:26:35;;;;;;;3.03;1.60;;;;;;;16.04;100.00;99052.78;5027939;28;20109;-67
2022/11/01 09:29:01;;;;;;;4.45;1.20;;;;;;;16.18;100.00;99048.75;5023971;28;20869;-68
2022/11/01 09:31:27;;;;;;;3.42;1.70;;;;;;;16.72;100.00;99057.75;5026460;28;20029;-67
2022/11/01 09:33:55;;;;;;;3.97;1.65;;;;;;;17.30;100.00;99056.88;5001956;28;20534;-67
2022/11/01 09:36:20;;;;;;;2.70;1.40;;;;;;;17.84;100.00;99053.06;5022955;28;20036;-67
2022/11/01 09:38:46;;;;;;;4.78;1.25;;;;;;;17.93;100.00;99024.22;5011549;28;20418;-67
2022/11/01 09:41:37;;;;;;;5.10;1.38;;;;;;;18.26;100.00;99055.47;5028086;28;20040;-67
2022/11/01 09:44:06;;;;;;;4.70;1.83;;;;;;;18.86;100.00;99057.56;5031025;28;20041;-68
2022/11/01 09:46:49;;;;;;;2.38;0.90;;;;;;;19.20;100.00;99050.13;5018983;28;20132;-68
2022/11/01 09:49:21;;;;;;;2.28;1.05;;;;;;;19.84;100.00;99041.31;5019842;28;20087;-67
2022/11/01 09:51:47;;;;;;;4.18;1.02;;;;;;;20.86;100.00;99051.59;5016514;28;20033;-68
2022/11/01 09:54:12;;;;;;;1.13;0.70;;;;;;;21.29;100.00;99041.38;5022550;28;20030;-68
2022/11/01 09:56:57;;;;;;;2.28;0.77;;;;;;;21.72;91.44;99045.72;5031851;28;20029;-67
2022/11/01 09:59:51;;;;;;;1.58;1.02;;;;;;;22.83;80.85;99050.81;5024285;28;20061;-68
2022/11/01 10:02:35;;;;;;;2.70;0.80;;;;;;;22.38;80.68;99058.81;5024757;28;20441;-67
2022/11/01 10:05:04;;;;;;;2.95;0.73;;;;;;;21.79;89.20;99061.97;5022854;28;20033;-68
2022/11/01 10:07:57;;;;;;;3.25;0.77;;;;;;;22.19;87.04;99057.69;5034799;28;20036;-67
2022/11/01 10:10:41;;;;;;;3.63;0.88;;;;;;;23.22;77.81;99059.31;5025755;28;20112;-68
2022/11/01 10:13:31;;;;;;;2.95;1.00;;;;;;;23.37;76.79;99061.19;5005830;28;20034;-68
2022/11/01 10:16:08;;;;;;;4.10;0.80;;;;;;;22.40;77.05;99066.81;5021197;28;20025;-68
2022/11/01 10:18:52;;;;;;;2.92;1.23;;;;;;;21.66;87.06;99064.13;4999610;28;20025;-68
2022/11/01 10:21:20;;;;;;;2.80;1.00;;;;;;;21.74;87.01;99059.19;5017048;28;20029;-68
2022/11/01 10:23:49;;;;;;;3.03;1.35;;;;;;;21.84;88.39;99040.78;5030324;28;20021;-68
2022/11/01 10:26:17;;;;;;;;;;;;;;;22.31;83.77;99059.09;5022235;28;20823;-68
2022/11/01 10:28:57;;;;;;;2.50;1.00;;;;;;;21.74;89.18;99070.22;5023711;28;19917;-68
2022/11/01 10:31:25;;;;;;;8.48;1.13;;;;;;;21.56;90.85;99063.25;5026042;28;20033;-67
2022/11/01 10:33:57;;;;;;;3.35;1.00;;;;;;;21.46;96.15;99066.81;5019225;28;20025;-67
2022/11/01 10:36:33;;;;;;;3.17;1.17;;;;;;;20.85;99.52;99063.66;5036175;28;20029;-67
2022/11/01 10:39:19;;;;;;;3.42;0.98;;;;;;;20.87;100.00;99064.22;5019938;28;20040;-67
2022/11/01 10:41:51;;;;;;;3.50;1.10;;;;;;;21.41;100.00;99066.78;5021961;28;20065;-67
2022/11/01 10:44:26;;;;;;;2.10;0.80;;;;;;;21.31;100.00;99061.19;5024086;28;20083;-67
2022/11/01 10:46:52;;;;;;;3.90;0.98;;;;;;;20.83;98.08;99074.09;5020781;28;20021;-67
2022/11/01 10:49:30;;;;;;;5.07;0.98;;;;;;;20.43;100.00;99073.47;5004820;28;20045;-67
2022/11/01 10:52:00;;;;;;;2.30;0.80;;;;;;;20.29;100.00;99070.31;5022424;28;20032;-67
2022/11/01 10:54:29;;;;;;;1.77;0.73;;;;;;;20.59;100.00;99066.22;5035429;28;20035;-67
2022/11/01 10:57:00;;;;;;;2.50;0.90;;;;;;;20.07;100.00;99072.31;5039345;28;20028;-67
2022/11/01 10:59:34;;;;;;;5.45;1.08;;;;;;;20.65;100.00;99056.94;5016709;28;20550;-67
2022/11/01 11:02:05;;;;;;;2.47;0.63;;;;;;;21.22;98.26;99058.97;5019505;28;20033;-67
2022/11/01 11:04:30;;;;;;;1.60;0.65;;;;;;;21.00;98.46;99058.28;5014710;28;20029;-67
2022/11/01 11:06:56;;;;;;;3.55;0.70;;;;;;;21.13;100.00;99070.72;5017354;28;20044;-67
2022/11/01 11:09:33;;;;;;;5.88;0.90;;;;;;;20.87;96.60;99061.47;5024362;28;20055;-67
2022/11/01 11:12:04;;;;;;;2.05;0.70;;;;;;;21.17;87.29;99050.69;5026081;28;20430;-67
2022/11/01 11:14:32;;;;;;;7.55;0.90;;;;;;;21.39;86.90;99068.97;5032042;28;20033;-67
2022/11/01 11:16:59;;;;;;;1.77;0.50;;;;;;;20.60;87.86;99050.56;5019887;28;20032;-68
2022/11/01 11:19:27;;;;;;;3.33;0.80;;;;;;;21.64;85.61;99063.59;5018931;28;20029;-67
2022/11/01 11:21:53;;;;;;;2.78;0.70;;;;;;;20.96;83.40;99070.91;5022938;28;20038;-68
2022/11/01 11:24:24;;;;;;;2.42;0.82;;;;;;;20.53;92.21;99053.50;5025251;28;22574;-67
2022/11/01 11:26:55;;;;;;;5.10;1.00;;;;;;;21.32;85.03;99073.84;5017887;28;20456;-68
2022/11/01 11:29:32;;;;;;;0.98;0.47;;;;;;;21.58;83.76;99072.91;5018135;28;20021;-67
2022/11/01 11:31:59;;;;;;;5.00;1.20;;;;;;;21.44;83.99;99060.75;5026530;28;20032;-67
2022/11/01 11:34:36;;;;;;;1.80;0.70;;;;;;;22.09;79.05;99059.31;5016379;28;20025;-68
2022/11/01 11:37:04;;;;;;;7.60;0.82;;;;;;;22.61;72.10;99067.63;5026198;28;20048;-68
2022/11/01 11:39:34;;;;;;;1.45;0.70;;;;;;;22.42;71.37;99065.44;5023723;28;20421;-67
2022/11/01 11:42:23;;;;;;;6.20;1.13;;;;;;;22.73;71.12;99070.97;5023422;28;20539;-67